sensor_id;sensor_type;location;lat;lon;timestamp;pressure;altitude;pressure_sealevel;temperature;humidity
60355;BME280;46198;51.464;-0.066;2023-01-29T00:01:14;103011.56;;;5.49;100.00
60355;BME280;46198;51.464;-0.066;2023-01-29T00:03:42;103010.56;;;5.50;100.00
60355;BME280;46198;51.464;-0.066;2023-01-29T00:06:10;103004.91;;;5.53;100.00
60355;BME280;46198;51.464;-0.066;2023-01-29T00:08:38;103007.34;;;5.57;100.00
60355;BME280;46198;51.464;-0.066;2023-01-29T00:11:07;103006.75;;;5.53;100.00
60355;BME280;46198;51.464;-0.066;2023-01-29T00:13:35;103017.31;;;5.45;100.00
60355;BME280;46198;51.464;-0.066;2023-01-29T00:16:04;103009.97;;;5.47;100.00
60355;BME280;46198;51.464;-0.066;2023-01-29T00:18:37;103013.22;;;5.41;100.00
60355;BME280;46198;51.464;-0.066;2023-01-29T00:21:08;103009.97;;;5.47;100.00
60355;BME280;46198;51.464;-0.066;2023-01-29T00:27:19;103019.78;;;5.27;100.00
60355;BME280;46198;51.464;-0.066;2023-01-29T00:29:47;103014.31;;;5.38;100.00
60355;BME280;46198;51.464;-0.066;2023-01-29T00:32:35;103026.13;;;5.47;100.00
60355;BME280;46198;51.464;-0.066;2023-01-29T00:35:05;103017.59;;;5.42;100.00
60355;BME280;46198;51.464;-0.066;2023-01-29T00:37:34;103016.59;;;5.43;100.00
60355;BME280;46198;51.464;-0.066;2023-01-29T00:40:03;103015.16;;;5.39;100.00
60355;BME280;46198;51.464;-0.066;2023-01-29T00:42:32;103010.78;;;5.38;100.00
60355;BME280;46198;51.464;-0.066;2023-01-29T00:45:17;103014.19;;;5.40;100.00
60355;BME280;46198;51.464;-0.066;2023-01-29T00:47:45;103011.63;;;5.38;100.00
60355;BME280;46198;51.464;-0.066;2023-01-29T00:50:15;103008.13;;;5.26;100.00
60355;BME280;46198;51.464;-0.066;2023-01-29T00:52:44;103010.59;;;5.29;100.00
60355;BME280;46198;51.464;-0.066;2023-01-29T00:55:14;103010.59;;;5.29;100.00
60355;BME280;46198;51.464;-0.066;2023-01-29T00:57:43;103010.78;;;5.38;100.00
60355;BME280;46198;51.464;-0.066;2023-01-29T01:00:13;103006.97;;;5.40;100.00
60355;BME280;46198;51.464;-0.066;2023-01-29T01:02:42;103002.94;;;5.34;100.00
60355;BME280;46198;51.464;-0.066;2023-01-29T01:05:29;103005.13;;;5.41;100.00
60355;BME280;46198;51.464;-0.066;2023-01-29T01:07:58;103002.16;;;5.23;100.00
60355;BME280;46198;51.464;-0.066;2023-01-29T01:10:28;102995.59;;;5.37;100.00
60355;BME280;46198;51.464;-0.066;2023-01-29T01:12:57;102995.84;;;5.33;100.00
60355;BME280;46198;51.464;-0.066;2023-01-29T01:15:28;102995.59;;;5.37;100.00
60355;BME280;46198;51.464;-0.066;2023-01-29T01:17:57;102988.69;;;5.44;100.00
60355;BME280;46198;51.464;-0.066;2023-01-29T01:20:28;102983.13;;;5.36;100.00
60355;BME280;46198;51.464;-0.066;2023-01-29T01:22:58;102976.16;;;5.33;100.00
60355;BME280;46198;51.464;-0.066;2023-01-29T01:25:26;102984.34;;;5.31;100.00
60355;BME280;46198;51.464;-0.066;2023-01-29T01:27:56;102985.06;;;5.33;100.00
60355;BME280;46198;51.464;-0.066;2023-01-29T01:30:25;102986.06;;;5.32;100.00
60355;BME280;46198;51.464;-0.066;2023-01-29T01:32:54;102976.81;;;5.25;100.00
60355;BME280;46198;51.464;-0.066;2023-01-29T01:35:23;102967.22;;;5.32;100.00
60355;BME280;46198;51.464;-0.066;2023-01-29T01:37:51;102971.88;;;5.30;100.00
60355;BME280;46198;51.464;-0.066;2023-01-29T01:40:21;102971.56;;;5.24;100.00
60355;BME280;46198;51.464;-0.066;2023-01-29T01:42:51;102966.03;;;5.25;100.00
60355;BME280;46198;51.464;-0.066;2023-01-29T01:45:23;102967.50;;;5.29;100.00
60355;BME280;46198;51.464;-0.066;2023-01-29T01:47:56;102960.53;;;5.27;100.00
60355;BME280;46198;51.464;-0.066;2023-01-29T01:50:30;102967.72;;;5.26;100.00
60355;BME280;46198;51.464;-0.066;2023-01-29T01:53:06;102966.31;;;5.22;100.00
60355;BME280;46198;51.464;-0.066;2023-01-29T01:55:40;102970.75;;;5.12;100.00
60355;BME280;46198;51.464;-0.066;2023-01-29T01:58:11;102971.22;;;5.17;100.00
60355;BME280;46198;51.464;-0.066;2023-01-29T02:00:39;102969.78;;;5.13;100.00
60355;BME280;46198;51.464;-0.066;2023-01-29T02:03:08;102975.19;;;5.13;100.00
60355;BME280;46198;51.464;-0.066;2023-01-29T02:05:57;102985.03;;;5.03;100.00
60355;BME280;46198;51.464;-0.066;2023-01-29T02:08:49;102987.66;;;5.14;100.00
60355;BME280;46198;51.464;-0.066;2023-01-29T02:11:38;102987.91;;;5.11;100.00
60355;BME280;46198;51.464;-0.066;2023-01-29T02:14:37;102986.34;;;5.08;100.00
60355;BME280;46198;51.464;-0.066;2023-01-29T02:17:08;102976.16;;;5.12;100.00
60355;BME280;46198;51.464;-0.066;2023-01-29T02:19:46;102977.22;;;5.00;100.00
60355;BME280;46198;51.464;-0.066;2023-01-29T02:22:28;102979.38;;;5.06;100.00
60355;BME280;46198;51.464;-0.066;2023-01-29T02:25:20;102972.72;;;5.10;100.00
60355;BME280;46198;51.464;-0.066;2023-01-29T02:28:24;102971.88;;;5.09;100.00
60355;BME280;46198;51.464;-0.066;2023-01-29T02:31:03;102961.00;;;5.11;100.00
60355;BME280;46198;51.464;-0.066;2023-01-29T02:33:41;102962.69;;;5.12;100.00
60355;BME280;46198;51.464;-0.066;2023-01-29T02:36:21;102969.34;;;5.08;100.00
60355;BME280;46198;51.464;-0.066;2023-01-29T02:38:59;102982.53;;;5.11;100.00
60355;BME280;46198;51.464;-0.066;2023-01-29T02:41:31;102965.19;;;5.04;100.00
60355;BME280;46198;51.464;-0.066;2023-01-29T02:44:05;102965.66;;;5.09;100.00
60355;BME280;46198;51.464;-0.066;2023-01-29T02:46:45;102978.38;;;5.07;100.00
60355;BME280;46198;51.464;-0.066;2023-01-29T02:49:22;102978.63;;;5.04;100.00
60355;BME280;46198;51.464;-0.066;2023-01-29T02:51:58;102967.94;;;4.93;100.00
60355;BME280;46198;51.464;-0.066;2023-01-29T02:54:33;102987.25;;;4.98;100.00
60355;BME280;46198;51.464;-0.066;2023-01-29T02:57:10;102987.09;;;4.99;100.00
60355;BME280;46198;51.464;-0.066;2023-01-29T02:59:47;102987.72;;;5.03;100.00
60355;BME280;46198;51.464;-0.066;2023-01-29T03:02:24;102988.00;;;4.88;100.00
60355;BME280;46198;51.464;-0.066;2023-01-29T03:04:59;102979.44;;;4.95;100.00
60355;BME280;46198;51.464;-0.066;2023-01-29T03:07:31;102972.09;;;4.97;100.00
60355;BME280;46198;51.464;-0.066;2023-01-29T03:10:21;102972.22;;;4.95;100.00
60355;BME280;46198;51.464;-0.066;2023-01-29T03:12:56;102966.94;;;4.94;100.00
60355;BME280;46198;51.464;-0.066;2023-01-29T03:15:32;102960.31;;;4.98;100.00
60355;BME280;46198;51.464;-0.066;2023-01-29T03:18:22;102958.63;;;4.97;100.00
60355;BME280;46198;51.464;-0.066;2023-01-29T03:21:24;102951.66;;;4.94;100.00
60355;BME280;46198;51.464;-0.066;2023-01-29T03:24:15;102955.22;;;4.95;100.00
60355;BME280;46198;51.464;-0.066;2023-01-29T03:27:06;102940.47;;;4.99;100.00
60355;BME280;46198;51.464;-0.066;2023-01-29T03:29:54;102948.44;;;5.00;100.00
60355;BME280;46198;51.464;-0.066;2023-01-29T03:32:49;102941.75;;;4.95;100.00
60355;BME280;46198;51.464;-0.066;2023-01-29T03:35:21;102935.63;;;4.93;100.00
60355;BME280;46198;51.464;-0.066;2023-01-29T03:37:59;102933.66;;;4.95;100.00
60355;BME280;46198;51.464;-0.066;2023-01-29T03:40:28;102941.59;;;4.96;100.00
60355;BME280;46198;51.464;-0.066;2023-01-29T03:43:06;102926.56;;;4.94;100.00
60355;BME280;46198;51.464;-0.066;2023-01-29T03:45:43;102922.38;;;5.01;100.00
60355;BME280;46198;51.464;-0.066;2023-01-29T03:48:24;102932.28;;;5.00;100.00
60355;BME280;46198;51.464;-0.066;2023-01-29T03:50:58;102925.13;;;4.89;100.00
60355;BME280;46198;51.464;-0.066;2023-01-29T03:53:37;102926.56;;;4.94;100.00
60355;BME280;46198;51.464;-0.066;2023-01-29T03:56:21;102928.88;;;4.98;100.00
60355;BME280;46198;51.464;-0.066;2023-01-29T03:58:56;102925.06;;;5.01;100.00
60355;BME280;46198;51.464;-0.066;2023-01-29T04:01:47;102922.09;;;5.04;100.00
60355;BME280;46198;51.464;-0.066;2023-01-29T04:04:23;102928.13;;;4.96;100.00
60355;BME280;46198;51.464;-0.066;2023-01-29T04:06:55;102921.38;;;5.02;100.00
60355;BME280;46198;51.464;-0.066;2023-01-29T04:09:28;102930.56;;;4.99;100.00
60355;BME280;46198;51.464;-0.066;2023-01-29T04:12:01;102922.47;;;4.99;100.00
60355;BME280;46198;51.464;-0.066;2023-01-29T04:14:31;102912.31;;;5.03;100.00
60355;BME280;46198;51.464;-0.066;2023-01-29T04:17:06;102922.09;;;5.04;100.00
60355;BME280;46198;51.464;-0.066;2023-01-29T04:19:46;102920.88;;;5.08;100.00
60355;BME280;46198;51.464;-0.066;2023-01-29T04:22:18;102915.59;;;5.06;100.00
60355;BME280;46198;51.464;-0.066;2023-01-29T04:24:47;102925.38;;;5.07;100.00
60355;BME280;46198;51.464;-0.066;2023-01-29T04:27:25;102913.19;;;5.03;100.00
60355;BME280;46198;51.464;-0.066;2023-01-29T04:30:10;102916.44;;;5.07;100.00
60355;BME280;46198;51.464;-0.066;2023-01-29T04:32:56;102908.63;;;5.04;100.00
60355;BME280;46198;51.464;-0.066;2023-01-29T04:35:31;102909.09;;;5.09;100.00
60355;BME280;46198;51.464;-0.066;2023-01-29T04:38:09;102907.66;;;5.05;100.00
60355;BME280;46198;51.464;-0.066;2023-01-29T04:40:49;102911.06;;;5.07;100.00
60355;BME280;46198;51.464;-0.066;2023-01-29T04:43:24;102904.97;;;5.05;100.00
60355;BME280;46198;51.464;-0.066;2023-01-29T04:46:06;102907.53;;;5.06;100.00
60355;BME280;46198;51.464;-0.066;2023-01-29T04:48:45;102904.25;;;5.03;100.00
60355;BME280;46198;51.464;-0.066;2023-01-29T04:51:21;102904.97;;;5.05;100.00
60355;BME280;46198;51.464;-0.066;2023-01-29T04:53:57;102907.47;;;4.97;100.00
60355;BME280;46198;51.464;-0.066;2023-01-29T04:56:33;102902.78;;;4.99;100.00
60355;BME280;46198;51.464;-0.066;2023-01-29T04:59:05;102895.44;;;5.01;100.00
60355;BME280;46198;51.464;-0.066;2023-01-29T05:01:36;102890.50;;;5.06;100.00
60355;BME280;46198;51.464;-0.066;2023-01-29T05:04:09;102883.81;;;5.00;100.00
60355;BME280;46198;51.464;-0.066;2023-01-29T05:06:41;102881.25;;;4.99;100.00
60355;BME280;46198;51.464;-0.066;2023-01-29T05:09:38;102883.69;;;5.02;100.00
60355;BME280;46198;51.464;-0.066;2023-01-29T05:12:08;102877.53;;;4.90;100.00
60355;BME280;46198;51.464;-0.066;2023-01-29T05:14:37;102870.75;;;4.96;100.00
60355;BME280;46198;51.464;-0.066;2023-01-29T05:17:09;102860.97;;;4.95;100.00
60355;BME280;46198;51.464;-0.066;2023-01-29T05:19:41;102853.63;;;4.97;100.00
60355;BME280;46198;51.464;-0.066;2023-01-29T05:22:12;102844.09;;;4.93;100.00
60355;BME280;46198;51.464;-0.066;2023-01-29T05:24:42;102839.44;;;4.95;100.00
60355;BME280;46198;51.464;-0.066;2023-01-29T05:27:15;102848.75;;;4.91;100.00
60355;BME280;46198;51.464;-0.066;2023-01-29T05:30:02;102844.84;;;4.95;100.00
60355;BME280;46198;51.464;-0.066;2023-01-29T05:32:30;102840.19;;;4.97;100.00
60355;BME280;46198;51.464;-0.066;2023-01-29T05:34:58;102846.69;;;4.94;100.00
60355;BME280;46198;51.464;-0.066;2023-01-29T05:37:28;102833.78;;;4.98;100.00
60355;BME280;46198;51.464;-0.066;2023-01-29T05:39:56;102834.25;;;5.03;100.00
60355;BME280;46198;51.464;-0.066;2023-01-29T05:42:24;102838.44;;;4.96;100.00
60355;BME280;46198;51.464;-0.066;2023-01-29T05:44:52;102841.03;;;4.97;100.00
60355;BME280;46198;51.464;-0.066;2023-01-29T05:47:20;102840.19;;;4.97;100.00
60355;BME280;46198;51.464;-0.066;2023-01-29T05:49:48;102827.13;;;5.02;100.00
60355;BME280;46198;51.464;-0.066;2023-01-29T05:52:16;102825.44;;;5.01;100.00
60355;BME280;46198;51.464;-0.066;2023-01-29T05:54:46;102826.03;;;5.04;100.00
60355;BME280;46198;51.464;-0.066;2023-01-29T05:57:14;102820.50;;;5.06;100.00
60355;BME280;46198;51.464;-0.066;2023-01-29T05:59:42;102816.53;;;5.10;100.00
60355;BME280;46198;51.464;-0.066;2023-01-29T06:02:10;102819.78;;;5.04;100.00
60355;BME280;46198;51.464;-0.066;2023-01-29T06:04:39;102821.91;;;5.00;100.00
60355;BME280;46198;51.464;-0.066;2023-01-29T06:07:07;102818.53;;;5.08;100.00
60355;BME280;46198;51.464;-0.066;2023-01-29T06:09:35;102820.78;;;5.03;100.00
60355;BME280;46198;51.464;-0.066;2023-01-29T06:12:05;102824.59;;;5.00;100.00
60355;BME280;46198;51.464;-0.066;2023-01-29T06:14:33;102817.38;;;5.01;100.00
60355;BME280;46198;51.464;-0.066;2023-01-29T06:17:01;102817.63;;;4.98;100.00
60355;BME280;46198;51.464;-0.066;2023-01-29T06:19:30;102813.56;;;5.03;100.00
60355;BME280;46198;51.464;-0.066;2023-01-29T06:21:58;102807.00;;;4.96;100.00
60355;BME280;46198;51.464;-0.066;2023-01-29T06:24:26;102805.03;;;4.98;100.00
60355;BME280;46198;51.464;-0.066;2023-01-29T06:26:54;102807.44;;;5.01;100.00
60355;BME280;46198;51.464;-0.066;2023-01-29T06:29:24;102797.78;;;4.99;100.00
60355;BME280;46198;51.464;-0.066;2023-01-29T06:31:52;102797.41;;;5.03;100.00
60355;BME280;46198;51.464;-0.066;2023-01-29T06:34:20;102799.69;;;5.08;100.00
60355;BME280;46198;51.464;-0.066;2023-01-29T06:36:48;102811.16;;;5.10;100.00
60355;BME280;46198;51.464;-0.066;2023-01-29T06:39:16;102809.84;;;5.04;100.00
60355;BME280;46198;51.464;-0.066;2023-01-29T06:41:44;102818.38;;;5.00;100.00
60355;BME280;46198;51.464;-0.066;2023-01-29T06:44:13;102819.78;;;5.04;100.00
60355;BME280;46198;51.464;-0.066;2023-01-29T06:46:42;102811.25;;;4.99;100.00
60355;BME280;46198;51.464;-0.066;2023-01-29T06:49:10;102816.13;;;5.05;100.00
60355;BME280;46198;51.464;-0.066;2023-01-29T06:51:38;102811.72;;;5.04;100.00
60355;BME280;46198;51.464;-0.066;2023-01-29T06:54:07;102818.38;;;5.09;100.00
60355;BME280;46198;51.464;-0.066;2023-01-29T06:56:36;102822.09;;;5.08;100.00
60355;BME280;46198;51.464;-0.066;2023-01-29T06:59:04;102815.13;;;5.06;100.00
60355;BME280;46198;51.464;-0.066;2023-01-29T07:01:32;102816.06;;;4.95;100.00
60355;BME280;46198;51.464;-0.066;2023-01-29T07:04:04;102815.25;;;5.04;100.00
60355;BME280;46198;51.464;-0.066;2023-01-29T07:06:32;102804.34;;;5.06;100.00
60355;BME280;46198;51.464;-0.066;2023-01-29T07:09:01;102802.38;;;5.08;100.00
60355;BME280;46198;51.464;-0.066;2023-01-29T07:11:29;102788.94;;;5.08;100.00
60355;BME280;46198;51.464;-0.066;2023-01-29T07:13:57;102782.38;;;5.01;100.00
60355;BME280;46198;51.464;-0.066;2023-01-29T07:16:51;102779.78;;;4.99;100.00
60355;BME280;46198;51.464;-0.066;2023-01-29T07:19:20;102785.78;;;5.03;100.00
60355;BME280;46198;51.464;-0.066;2023-01-29T07:21:49;102787.75;;;5.01;100.00
60355;BME280;46198;51.464;-0.066;2023-01-29T07:24:17;102787.03;;;4.99;100.00
60355;BME280;46198;51.464;-0.066;2023-01-29T07:26:46;102793.53;;;4.96;100.00
60355;BME280;46198;51.464;-0.066;2023-01-29T07:29:13;102790.84;;;4.96;100.00
60355;BME280;46198;51.464;-0.066;2023-01-29T07:35:50;102794.19;;;4.88;100.00
60355;BME280;46198;51.464;-0.066;2023-01-29T07:38:18;102791.00;;;4.95;100.00
60355;BME280;46198;51.464;-0.066;2023-01-29T07:40:47;102787.97;;;4.88;100.00
60355;BME280;46198;51.464;-0.066;2023-01-29T07:43:16;102783.44;;;4.88;100.00
60355;BME280;46198;51.464;-0.066;2023-01-29T07:45:44;102788.13;;;4.86;100.00
60355;BME280;46198;51.464;-0.066;2023-01-29T07:48:12;102785.88;;;4.92;100.00
60355;BME280;46198;51.464;-0.066;2023-01-29T07:50:40;102778.50;;;4.94;100.00
60355;BME280;46198;51.464;-0.066;2023-01-29T07:53:13;102770.19;;;4.97;100.00
60355;BME280;46198;51.464;-0.066;2023-01-29T07:55:43;102764.25;;;5.03;100.00
60355;BME280;46198;51.464;-0.066;2023-01-29T07:58:12;102768.47;;;4.96;100.00
60355;BME280;46198;51.464;-0.066;2023-01-29T08:00:40;102772.00;;;4.96;100.00
60355;BME280;46198;51.464;-0.066;2023-01-29T08:03:10;102766.75;;;4.95;100.00
60355;BME280;46198;51.464;-0.066;2023-01-29T08:05:38;102773.00;;;4.95;100.00
60355;BME280;46198;51.464;-0.066;2023-01-29T08:08:08;102772.03;;;5.06;100.00
60355;BME280;46198;51.464;-0.066;2023-01-29T08:10:39;102767.34;;;4.98;100.00
60355;BME280;46198;51.464;-0.066;2023-01-29T08:13:07;102775.34;;;4.88;100.00
60355;BME280;46198;51.464;-0.066;2023-01-29T08:15:35;102766.50;;;4.98;100.00
60355;BME280;46198;51.464;-0.066;2023-01-29T08:18:05;102773.28;;;5.02;100.00
60355;BME280;46198;51.464;-0.066;2023-01-29T08:20:33;102759.31;;;5.08;100.00
60355;BME280;46198;51.464;-0.066;2023-01-29T08:23:02;102770.78;;;5.10;100.00
60355;BME280;46198;51.464;-0.066;2023-01-29T08:25:32;102767.09;;;5.11;100.00
60355;BME280;46198;51.464;-0.066;2023-01-29T08:28:02;102766.56;;;5.17;100.00
60355;BME280;46198;51.464;-0.066;2023-01-29T08:30:32;102766.56;;;5.17;100.00
60355;BME280;46198;51.464;-0.066;2023-01-29T08:33:01;102767.13;;;5.21;100.00
60355;BME280;46198;51.464;-0.066;2023-01-29T08:35:29;102767.41;;;5.18;100.00
60355;BME280;46198;51.464;-0.066;2023-01-29T08:37:59;102769.69;;;5.22;100.00
60355;BME280;46198;51.464;-0.066;2023-01-29T08:40:29;102760.63;;;5.23;100.00
60355;BME280;46198;51.464;-0.066;2023-01-29T08:42:58;102765.72;;;5.26;100.00
60355;BME280;46198;51.464;-0.066;2023-01-29T08:45:32;102759.09;;;5.30;100.00
60355;BME280;46198;51.464;-0.066;2023-01-29T08:48:01;102754.13;;;5.36;100.00
60355;BME280;46198;51.464;-0.066;2023-01-29T08:50:29;102754.69;;;5.39;100.00
60355;BME280;46198;51.464;-0.066;2023-01-29T08:52:58;102764.34;;;5.42;100.00
60355;BME280;46198;51.464;-0.066;2023-01-29T08:55:27;102765.19;;;5.32;100.00
60355;BME280;46198;51.464;-0.066;2023-01-29T08:57:56;102753.28;;;5.35;100.00
60355;BME280;46198;51.464;-0.066;2023-01-29T09:00:24;102761.94;;;5.39;100.00
60355;BME280;46198;51.464;-0.066;2023-01-29T09:02:53;102764.34;;;5.42;100.00
60355;BME280;46198;51.464;-0.066;2023-01-29T09:05:21;102753.88;;;5.48;100.00
60355;BME280;46198;51.464;-0.066;2023-01-29T09:07:50;102764.94;;;5.55;100.00
60355;BME280;46198;51.464;-0.066;2023-01-29T09:10:20;102761.09;;;5.48;100.00
60355;BME280;46198;51.464;-0.066;2023-01-29T09:12:48;102759.69;;;5.44;100.00
60355;BME280;46198;51.464;-0.066;2023-01-29T09:15:16;102764.78;;;5.47;100.00
60355;BME280;46198;51.464;-0.066;2023-01-29T09:17:44;102759.56;;;5.55;100.00
60355;BME280;46198;51.464;-0.066;2023-01-29T09:20:14;102765.50;;;5.49;100.00
60355;BME280;46198;51.464;-0.066;2023-01-29T09:22:42;102761.97;;;5.58;100.00
60355;BME280;46198;51.464;-0.066;2023-01-29T09:25:11;102752.47;;;5.64;100.00
60355;BME280;46198;51.464;-0.066;2023-01-29T09:27:40;102748.50;;;5.68;100.00
60355;BME280;46198;51.464;-0.066;2023-01-29T09:30:10;102753.31;;;5.64;100.00
60355;BME280;46198;51.464;-0.066;2023-01-29T09:32:38;102747.50;;;5.69;100.00
60355;BME280;46198;51.464;-0.066;2023-01-29T09:35:23;102747.09;;;5.73;100.00
60355;BME280;46198;51.464;-0.066;2023-01-29T09:37:52;102750.63;;;5.64;100.00
60355;BME280;46198;51.464;-0.066;2023-01-29T09:40:24;102750.91;;;5.81;100.00
60355;BME280;46198;51.464;-0.066;2023-01-29T09:42:56;102748.94;;;5.73;100.00
60355;BME280;46198;51.464;-0.066;2023-01-29T09:45:29;102751.66;;;5.73;100.00
60355;BME280;46198;51.464;-0.066;2023-01-29T09:47:59;102746.66;;;5.68;100.00
60355;BME280;46198;51.464;-0.066;2023-01-29T09:50:37;102751.34;;;5.66;100.00
60355;BME280;46198;51.464;-0.066;2023-01-29T09:53:14;102755.63;;;5.78;100.00
60355;BME280;46198;51.464;-0.066;2023-01-29T09:55:48;102749.78;;;5.73;100.00
60355;BME280;46198;51.464;-0.066;2023-01-29T09:58:21;102748.66;;;5.86;100.00
60355;BME280;46198;51.464;-0.066;2023-01-29T10:00:57;102754.47;;;5.91;100.00
60355;BME280;46198;51.464;-0.066;2023-01-29T10:03:39;102754.22;;;5.94;100.00
60355;BME280;46198;51.464;-0.066;2023-01-29T10:06:22;102754.22;;;5.94;100.00
60355;BME280;46198;51.464;-0.066;2023-01-29T10:11:47;102757.88;;;5.93;100.00
60355;BME280;46198;51.464;-0.066;2023-01-29T10:14:28;102748.81;;;5.94;100.00
60355;BME280;46198;51.464;-0.066;2023-01-29T10:17:13;102744.16;;;5.96;100.00
60355;BME280;46198;51.464;-0.066;2023-01-29T10:20:02;102748.28;;;6.00;100.00
60355;BME280;46198;51.464;-0.066;2023-01-29T10:23:01;102739.31;;;5.99;100.00
60355;BME280;46198;51.464;-0.066;2023-01-29T10:25:32;102743.56;;;6.02;100.00
60355;BME280;46198;51.464;-0.066;2023-01-29T10:28:13;102727.53;;;6.10;100.00
60355;BME280;46198;51.464;-0.066;2023-01-29T10:30:47;102736.63;;;6.09;100.00
60355;BME280;46198;51.464;-0.066;2023-01-29T10:33:21;102742.00;;;6.09;100.00
60355;BME280;46198;51.464;-0.066;2023-01-29T10:35:52;102732.50;;;6.15;100.00
60355;BME280;46198;51.464;-0.066;2023-01-29T10:38:30;102734.94;;;6.08;100.00
60355;BME280;46198;51.464;-0.066;2023-01-29T10:41:13;102738.16;;;6.02;100.00
60355;BME280;46198;51.464;-0.066;2023-01-29T10:46:28;102716.56;;;6.21;100.00
60355;BME280;46198;51.464;-0.066;2023-01-29T10:49:12;102724.81;;;6.10;100.00
60355;BME280;46198;51.464;-0.066;2023-01-29T10:51:55;102711.16;;;6.21;100.00
60355;BME280;46198;51.464;-0.066;2023-01-29T10:54:51;102708.34;;;6.23;100.00
60355;BME280;46198;51.464;-0.066;2023-01-29T10:57:38;102706.50;;;6.24;100.00
60355;BME280;46198;51.464;-0.066;2023-01-29T11:00:11;102703.91;;;6.32;100.00
60355;BME280;46198;51.464;-0.066;2023-01-29T11:02:45;102696.53;;;6.24;100.00
60355;BME280;46198;51.464;-0.066;2023-01-29T11:05:26;102688.88;;;6.29;100.00
60355;BME280;46198;51.464;-0.066;2023-01-29T11:08:02;102685.03;;;6.32;100.00
60355;BME280;46198;51.464;-0.066;2023-01-29T11:10:37;102683.75;;;6.36;100.00
60355;BME280;46198;51.464;-0.066;2023-01-29T11:13:11;102680.47;;;6.42;100.00
60355;BME280;46198;51.464;-0.066;2023-01-29T11:15:41;102677.75;;;6.52;100.00
60355;BME280;46198;51.464;-0.066;2023-01-29T11:18:10;102675.19;;;6.50;100.00
60355;BME280;46198;51.464;-0.066;2023-01-29T11:20:42;102660.09;;;6.57;100.00
60355;BME280;46198;51.464;-0.066;2023-01-29T11:23:24;102659.09;;;6.58;100.00
60355;BME280;46198;51.464;-0.066;2023-01-29T11:25:56;102650.97;;;6.68;100.00
60355;BME280;46198;51.464;-0.066;2023-01-29T11:28:34;102644.25;;;6.72;100.00
60355;BME280;46198;51.464;-0.066;2023-01-29T11:31:02;102641.31;;;6.65;100.00
60355;BME280;46198;51.464;-0.066;2023-01-29T11:33:31;102636.41;;;6.79;100.00
60355;BME280;46198;51.464;-0.066;2023-01-29T11:35:59;102631.75;;;6.71;100.00
60355;BME280;46198;51.464;-0.066;2023-01-29T11:38:46;102626.19;;;6.73;100.00
60355;BME280;46198;51.464;-0.066;2023-01-29T11:41:41;102621.91;;;6.80;100.00
60355;BME280;46198;51.464;-0.066;2023-01-29T11:44:25;102618.97;;;6.73;100.00
60355;BME280;46198;51.464;-0.066;2023-01-29T11:46:54;102606.09;;;6.85;100.00
60355;BME280;46198;51.464;-0.066;2023-01-29T11:49:30;102606.19;;;6.93;100.00
60355;BME280;46198;51.464;-0.066;2023-01-29T11:52:01;102588.31;;;6.92;100.00
60355;BME280;46198;51.464;-0.066;2023-01-29T11:54:35;102594.69;;;6.91;100.00
60355;BME280;46198;51.464;-0.066;2023-01-29T11:57:18;102588.53;;;6.99;100.00
60355;BME280;46198;51.464;-0.066;2023-01-29T11:59:50;102581.97;;;7.01;100.00
60355;BME280;46198;51.464;-0.066;2023-01-29T12:02:24;102571.16;;;7.01;100.00
60355;BME280;46198;51.464;-0.066;2023-01-29T12:05:00;102572.47;;;6.97;100.00
60355;BME280;46198;51.464;-0.066;2023-01-29T12:07:29;102564.66;;;6.94;100.00
60355;BME280;46198;51.464;-0.066;2023-01-29T12:09:58;102565.75;;;7.01;100.00
60355;BME280;46198;51.464;-0.066;2023-01-29T12:12:31;102558.06;;;7.06;100.00
60355;BME280;46198;51.464;-0.066;2023-01-29T12:15:17;102558.28;;;6.95;100.00
60355;BME280;46198;51.464;-0.066;2023-01-29T12:17:51;102557.81;;;7.18;100.00
60355;BME280;46198;51.464;-0.066;2023-01-29T12:20:25;102546.84;;;7.19;100.00
60355;BME280;46198;51.464;-0.066;2023-01-29T12:23:00;102551.06;;;7.22;100.00
60355;BME280;46198;51.464;-0.066;2023-01-29T12:25:39;102537.44;;;7.23;100.00
60355;BME280;46198;51.464;-0.066;2023-01-29T12:28:18;102531.25;;;7.31;100.00
60355;BME280;46198;51.464;-0.066;2023-01-29T12:30:58;102528.47;;;7.23;100.00
60355;BME280;46198;51.464;-0.066;2023-01-29T12:33:37;102519.66;;;7.39;100.00
60355;BME280;46198;51.464;-0.066;2023-01-29T12:36:10;102524.88;;;7.40;100.00
60355;BME280;46198;51.464;-0.066;2023-01-29T12:38:42;102505.97;;;7.40;100.00
60355;BME280;46198;51.464;-0.066;2023-01-29T12:41:17;102495.47;;;7.37;100.00
60355;BME280;46198;51.464;-0.066;2023-01-29T12:43:53;102499.53;;;7.33;100.00
60355;BME280;46198;51.464;-0.066;2023-01-29T12:46:26;102494.41;;;7.30;100.00
60355;BME280;46198;51.464;-0.066;2023-01-29T12:48:57;102487.91;;;7.41;100.00
60355;BME280;46198;51.464;-0.066;2023-01-29T12:51:30;102477.41;;;7.38;100.00
60355;BME280;46198;51.464;-0.066;2023-01-29T12:54:03;102479.13;;;7.39;100.00
60355;BME280;46198;51.464;-0.066;2023-01-29T12:56:37;102468.78;;;7.34;100.00
60355;BME280;46198;51.464;-0.066;2023-01-29T12:59:16;102473.53;;;7.40;100.00
60355;BME280;46198;51.464;-0.066;2023-01-29T13:01:49;102466.47;;;7.39;100.00
60355;BME280;46198;51.464;-0.066;2023-01-29T13:04:29;102461.19;;;7.38;100.00
60355;BME280;46198;51.464;-0.066;2023-01-29T13:07:07;102449.59;;;7.45;100.00
60355;BME280;46198;51.464;-0.066;2023-01-29T13:09:41;102437.84;;;7.54;100.00
60355;BME280;46198;51.464;-0.066;2023-01-29T13:12:13;102436.78;;;7.47;100.00
60355;BME280;46198;51.464;-0.066;2023-01-29T13:14:47;102431.25;;;7.57;100.00
60355;BME280;46198;51.464;-0.066;2023-01-29T13:17:27;102417.56;;;7.59;100.00
60355;BME280;46198;51.464;-0.066;2023-01-29T13:19:59;102412.16;;;7.59;100.00
60355;BME280;46198;51.464;-0.066;2023-01-29T13:22:33;102415.25;;;7.64;100.00
60355;BME280;46198;51.464;-0.066;2023-01-29T13:25:03;102405.97;;;7.66;100.00
60355;BME280;46198;51.464;-0.066;2023-01-29T13:27:33;102396.31;;;7.64;100.00